TAF Text Data
IDs:
Format:
Raw Decoded Include METAR

Data at: 2013 UTC 01 Oct 2022

VTBS 012000Z 02002KT 9999 FEW020 25/23 Q1007 NOSIG

TAF VTBS 011700Z 0118/0224 13005KT 9999 FEW020
  TEMPO 0118/0122 VRB15KT 3000 TSRA FEW018CB SCT030 BKN100
  BECMG 0201/0203 20008KT
  TEMPO 0204/0210 VRB10G25KT 3000 TSRA FEW018CB SCT030 BKN100